Historyczne dane pomiarowe

Dodano dane terminowe – wersja testowa.

Dane z okresu 1951-2019

Wersja bazy: 1.34 [2019-03-16, lista zmian], aktualizacja planowana na 2019-04-15

Dane meteo z obszaru Polski uzyskane na podstawie danych udostępnionych przez Instytut Meteorologii i Gospodarki Wodnej – Państwowy Instytut Badawczy.

 

Wybierz Datę:    

       

TemperaturaWilgotnośćWiatrCiśnienieOpadyŚniegCzas trwania zjawisk
 Stacja t tx tn tng RH VA  wxwx mslp ppp RRR   cm mm wxwxwxwxwxwxwx
1970-10-11 10.3 13.2 4.1--- 8.0 0.0---- 0.2------------
1970-10-12 7.7 12.2 3.6--- 8.0 0.7---- 0.4------------
1970-10-13 4.8 15.1 0.4--- 2.7 0.0---- 0.0------------
1970-10-14 1.4 7.2 -0.8--- 5.3 0.0---- 0.0------------
1970-10-15 -1.8 0.4 -6.5--- 7.3 0.0---- 0.0------------
1970-10-16 -0.7 3.4 -2.9--- 5.3 0.0---- 0.0------------
1970-10-17 -2.2 8.8 -8.5--- 0.0 0.0---- 0.0------------
1970-10-18 2.6 10.5 -7.0--- 5.3 0.0---- 0.0------------
1970-10-19 6.8 10.0 -1.2--- 8.0 3.3---- 0.0------------
1970-10-20 10.2 12.6 6.3--- 8.0 3.3---- 0.0------------
1970-10-21 8.6 14.6 2.9--- 6.7 1.7---- 4.5------------
1970-10-22 2.6 7.6 -0.7--- 5.3 1.3---- 0.0------------
1970-10-23 2.7 6.4 -3.3--- 6.3 1.0---- 0.6------------
1970-10-24 1.7 3.8 0.6--- 8.0 3.3---- 4.0------------
1970-10-25 2.3 4.0 0.0--- 8.0 3.3---- 3.8-- 3---------
1970-10-26 7.0 9.1 3.7--- 5.3 2.3---- 0.6------------
1970-10-27 5.4 8.6 2.7--- 8.0 3.3---- 3.6------------
1970-10-28 4.3 7.6 -0.5--- 6.7 4.7---- 8.0------------
1970-10-29 3.5 6.8 1.4--- 8.0 4.0---- 7.2------------
1970-10-30 4.0 6.6 -3.3--- 3.7 4.7---- 0.4------------
1970-10-31 9.4 13.7 6.2--- 6.7 4.7---- 8.7------------
1970-11-01 11.8 13.7 7.6--- 6.7 4.7---- 0.7------------
1970-11-02 8.0 12.6 6.1--- 8.0 4.3---- 8.0------------
1970-11-03 10.7 13.6 5.7--- 8.0 4.0---- 15.1------------
1970-11-04 7.4 13.6 6.1--- 6.7 8.7---- 9.1------------
1970-11-05 7.7 10.4 5.7--- 8.0 3.3---- 2.4------------
1970-11-06 2.6 7.4 0.7--- 8.0 3.7---- 2.4------------
1970-11-07 -2.8 0.8 -3.9--- 3.7 0.0---- 2.6------------
1970-11-08 -7.1 0.3-12.8--- 2.7 0.0---- 0.0-- 5---------
1970-11-09 2.8 3.3-14.6--- 8.0 5.0---- 0.4-- 2---------
1194.8 ms

 

Źródłem pochodzenia danych jest Instytut Meteorologii i Gospodarki Wodnej – Państwowy Instytut Badawczy. Dane Instytutu Meteorologii i Gospodarki Wodnej – Państwowego Instytutu Badawczego zostały przetworzone.

Dane źródłowe można odnaleźć na stronie https://dane.imgw.pl